Time;durP1;ratioP1;P1;durP2;ratioP2;P2;SDS_P1;SDS_P2;PMS_P1;PMS_P2;Temp;Humidity;BMP_temperature;BMP_pressure;BME280_temperature;BME280_humidity;BME280_pressure;Samples;Min_cycle;Max_cycle;Signal;HPM_P1;HPM_P2
2020/12/11 00:04:08;;;;;;;42.03;18.33;;;;;;;;;;10376234;27;20240;-65
2020/12/11 00:09:11;;;;;;;40.67;19.30;;;;;;;;;;10380813;28;20239;-65
2020/12/11 00:14:12;;;;;;;41.37;18.23;;;;;;;;;;10383368;28;20605;-65
2020/12/11 00:19:14;;;;;;;43.33;19.50;;;;;;;;;;10388954;28;20225;-65
2020/12/11 00:24:19;;;;;;;40.83;18.90;;;;;;;;;;10382644;28;20224;-65
2020/12/11 00:29:21;;;;;;;44.90;19.60;;;;;;;;;;10382454;27;20231;-65
2020/12/11 00:34:23;;;;;;;41.20;18.20;;;;;;;;;;10376440;28;20221;-66
2020/12/11 00:39:25;;;;;;;39.07;17.83;;;;;;;;;;10374423;28;20232;-65
2020/12/11 00:44:27;;;;;;;42.80;19.70;;;;;;;;;;10400516;27;20729;-66
2020/12/11 00:49:29;;;;;;;41.67;18.77;;;;;;;;;;10377668;28;20722;-66
2020/12/11 00:54:32;;;;;;;40.07;19.37;;;;;;;;;;10376963;28;20523;-65
2020/12/11 00:59:33;;;;;;;41.80;19.30;;;;;;;;;;10374939;28;20205;-65
2020/12/11 01:04:35;;;;;;;40.10;19.13;;;;;;;;;;10372715;28;20240;-65
2020/12/11 01:09:38;;;;;;;38.83;17.80;;;;;;;;;;10372549;28;20236;-65
2020/12/11 01:14:40;;;;;;;37.53;18.03;;;;;;;;;;10378039;28;20659;-65
2020/12/11 01:19:41;;;;;;;41.80;17.77;;;;;;;;;;10374606;28;20236;-65
2020/12/11 01:24:44;;;;;;;37.30;18.63;;;;;;;;;;10370368;28;20744;-65
2020/12/11 01:29:46;;;;;;;38.27;17.87;;;;;;;;;;10379192;28;20237;-66
2020/12/11 01:34:48;;;;;;;34.80;17.33;;;;;;;;;;10372377;28;20219;-66
2020/12/11 01:39:50;;;;;;;33.93;16.90;;;;;;;;;;10376632;28;20220;-65
2020/12/11 01:44:53;;;;;;;37.57;16.53;;;;;;;;;;10369124;28;20208;-67
2020/12/11 01:49:57;;;;;;;32.20;15.60;;;;;;;;;;10393224;27;20240;-66
2020/12/11 01:54:59;;;;;;;36.93;17.57;;;;;;;;;;10377190;28;20208;-66
2020/12/11 02:00:05;;;;;;;32.23;14.90;;;;;;;;;;10383200;27;20208;-66
2020/12/11 02:05:06;;;;;;;31.33;15.53;;;;;;;;;;10380641;27;20236;-66
2020/12/11 02:10:10;;;;;;;29.60;15.53;;;;;;;;;;10373560;28;20239;-66
2020/12/11 02:15:12;;;;;;;31.57;15.47;;;;;;;;;;10381195;27;20224;-66
2020/12/11 02:20:14;;;;;;;30.70;15.87;;;;;;;;;;10380099;28;20228;-65
2020/12/11 02:25:17;;;;;;;29.03;15.73;;;;;;;;;;10369459;28;20634;-65
2020/12/11 02:30:19;;;;;;;30.30;15.47;;;;;;;;;;10384814;27;20247;-65
2020/12/11 02:35:21;;;;;;;31.70;16.40;;;;;;;;;;10375549;28;20212;-67
2020/12/11 02:40:23;;;;;;;34.73;16.47;;;;;;;;;;10378567;28;20220;-66
2020/12/11 02:45:25;;;;;;;33.90;16.27;;;;;;;;;;10377415;28;20223;-66
2020/12/11 02:50:27;;;;;;;30.70;15.27;;;;;;;;;;10382115;28;20232;-66
2020/12/11 02:55:30;;;;;;;32.87;16.07;;;;;;;;;;10381156;27;20244;-66
2020/12/11 03:00:32;;;;;;;32.77;15.67;;;;;;;;;;10383560;28;20209;-66
2020/12/11 03:05:34;;;;;;;33.37;15.73;;;;;;;;;;10385681;28;20243;-66
2020/12/11 03:10:36;;;;;;;30.80;15.50;;;;;;;;;;10371067;28;20612;-65
2020/12/11 03:15:38;;;;;;;36.47;16.57;;;;;;;;;;10375098;28;20299;-65
2020/12/11 03:20:40;;;;;;;34.17;16.40;;;;;;;;;;10375764;28;20311;-65
2020/12/11 03:25:43;;;;;;;36.27;17.23;;;;;;;;;;10372377;28;20223;-65
2020/12/11 03:30:45;;;;;;;35.53;16.73;;;;;;;;;;10369715;28;20723;-65
2020/12/11 03:35:46;;;;;;;37.67;16.57;;;;;;;;;;10367235;28;20217;-65
2020/12/11 03:40:49;;;;;;;34.00;16.20;;;;;;;;;;10375948;28;21110;-65
2020/12/11 03:45:52;;;;;;;34.67;16.80;;;;;;;;;;10382324;27;20226;-65
2020/12/11 03:50:54;;;;;;;35.73;16.23;;;;;;;;;;10378766;28;20243;-65
2020/12/11 03:55:57;;;;;;;34.63;16.77;;;;;;;;;;10375598;28;20219;-65
2020/12/11 04:00:58;;;;;;;36.37;18.33;;;;;;;;;;10376496;28;20221;-65
2020/12/11 04:06:00;;;;;;;31.83;16.50;;;;;;;;;;10378687;27;20240;-65
2020/12/11 04:11:04;;;;;;;33.73;17.40;;;;;;;;;;10373167;28;20309;-66
2020/12/11 04:16:06;;;;;;;35.20;17.10;;;;;;;;;;10379058;28;20212;-65
2020/12/11 04:21:10;;;;;;;32.63;17.17;;;;;;;;;;10375172;28;20212;-65
2020/12/11 04:26:12;;;;;;;31.83;16.80;;;;;;;;;;10380548;28;20619;-66
2020/12/11 04:31:14;;;;;;;31.07;14.93;;;;;;;;;;10375192;28;20220;-66
2020/12/11 04:36:17;;;;;;;33.23;16.63;;;;;;;;;;10378084;28;20216;-66
2020/12/11 04:41:20;;;;;;;31.53;15.97;;;;;;;;;;10374746;28;20224;-66
2020/12/11 04:46:26;;;;;;;31.77;15.60;;;;;;;;;;10384447;27;20221;-66
2020/12/11 04:51:29;;;;;;;33.27;16.67;;;;;;;;;;10372311;28;20219;-66
2020/12/11 04:56:32;;;;;;;32.57;16.70;;;;;;;;;;10379416;28;20212;-66
2020/12/11 05:01:34;;;;;;;33.77;16.27;;;;;;;;;;10376602;28;20679;-66
2020/12/11 05:06:37;;;;;;;35.00;15.73;;;;;;;;;;10380095;27;20323;-65
2020/12/11 05:11:40;;;;;;;29.63;15.40;;;;;;;;;;10371587;28;20557;-66
2020/12/11 05:16:43;;;;;;;30.13;15.90;;;;;;;;;;10388503;27;20216;-66
2020/12/11 05:21:45;;;;;;;30.13;16.13;;;;;;;;;;10373356;27;20208;-66
2020/12/11 05:26:48;;;;;;;35.67;16.40;;;;;;;;;;10373671;28;20680;-65
2020/12/11 05:31:50;;;;;;;35.80;16.23;;;;;;;;;;10375570;28;22198;-65
2020/12/11 05:36:54;;;;;;;33.33;16.17;;;;;;;;;;10377028;27;20615;-66
2020/12/11 05:41:58;;;;;;;29.87;15.87;;;;;;;;;;10381668;27;20216;-66
2020/12/11 05:47:16;;;;;;;30.00;15.30;;;;;;;;;;10392126;27;20242;-66
2020/12/11 05:52:19;;;;;;;29.80;15.47;;;;;;;;;;10386791;27;20350;-65
2020/12/11 05:57:22;;;;;;;28.60;14.77;;;;;;;;;;10374757;28;20213;-66
2020/12/11 06:02:25;;;;;;;30.23;15.33;;;;;;;;;;10391527;27;20236;-66
2020/12/11 06:07:29;;;;;;;29.23;14.70;;;;;;;;;;10380645;27;20367;-65
2020/12/11 06:12:32;;;;;;;30.80;15.50;;;;;;;;;;10380978;27;20675;-66
2020/12/11 06:17:36;;;;;;;29.10;14.30;;;;;;;;;;10381483;27;20216;-65
2020/12/11 06:22:38;;;;;;;29.83;15.17;;;;;;;;;;10385570;27;20227;-67
2020/12/11 06:27:40;;;;;;;27.33;13.73;;;;;;;;;;10375867;27;20243;-66
2020/12/11 06:32:43;;;;;;;29.10;15.07;;;;;;;;;;10382601;27;20220;-66
2020/12/11 06:37:45;;;;;;;30.03;15.37;;;;;;;;;;10372088;28;20223;-64
2020/12/11 06:42:48;;;;;;;30.47;15.77;;;;;;;;;;10375808;27;20220;-65
2020/12/11 06:47:54;;;;;;;28.63;14.27;;;;;;;;;;10373613;28;20231;-66
2020/12/11 06:52:56;;;;;;;30.23;15.27;;;;;;;;;;10373638;27;20219;-67
2020/12/11 06:57:59;;;;;;;27.90;14.83;;;;;;;;;;10368300;27;20220;-66
2020/12/11 07:03:12;;;;;;;30.97;16.77;;;;;;;;;;10375259;28;20318;-67
2020/12/11 07:08:14;;;;;;;30.33;15.87;;;;;;;;;;10369933;28;20613;-66
2020/12/11 07:13:17;;;;;;;33.43;16.70;;;;;;;;;;10371915;28;20212;-65
2020/12/11 07:18:19;;;;;;;33.07;16.37;;;;;;;;;;10374516;28;20213;-66
2020/12/11 07:23:21;;;;;;;29.73;16.30;;;;;;;;;;10402344;27;20892;-66
2020/12/11 07:28:24;;;;;;;29.33;15.13;;;;;;;;;;10380946;27;20240;-66
2020/12/11 07:33:34;;;;;;;31.73;16.00;;;;;;;;;;10374694;28;20212;-67
2020/12/11 07:38:36;;;;;;;30.33;15.53;;;;;;;;;;10369640;28;20220;-65
2020/12/11 07:43:45;;;;;;;30.00;15.20;;;;;;;;;;10373686;28;20215;-66
2020/12/11 07:48:48;;;;;;;27.50;15.47;;;;;;;;;;10373574;28;20251;-65
2020/12/11 07:53:50;;;;;;;28.47;14.93;;;;;;;;;;10370640;28;20695;-65
2020/12/11 07:59:08;;;;;;;27.20;14.60;;;;;;;;;;10373330;28;20896;-66
2020/12/11 08:04:11;;;;;;;28.33;14.47;;;;;;;;;;10373226;28;20728;-66
2020/12/11 08:09:17;;;;;;;24.83;14.47;;;;;;;;;;10367854;28;20244;-67
2020/12/11 08:14:20;;;;;;;29.77;14.80;;;;;;;;;;10371175;28;20221;-66
2020/12/11 08:19:22;;;;;;;29.07;15.30;;;;;;;;;;10370668;28;20236;-66
2020/12/11 08:24:28;;;;;;;28.43;14.93;;;;;;;;;;10376422;28;20678;-66
2020/12/11 08:29:31;;;;;;;28.93;14.70;;;;;;;;;;10384565;27;20244;-66
2020/12/11 08:34:32;;;;;;;27.97;14.07;;;;;;;;;;10378242;28;20212;-66
2020/12/11 08:39:34;;;;;;;26.00;14.33;;;;;;;;;;10373685;27;20568;-66
2020/12/11 08:45:03;;;;;;;29.27;14.43;;;;;;;;;;10377400;28;20632;-66
2020/12/11 08:50:10;;;;;;;28.27;15.63;;;;;;;;;;10375238;28;20232;-67
2020/12/11 08:55:12;;;;;;;28.47;15.50;;;;;;;;;;10374481;28;20212;-66
2020/12/11 09:00:14;;;;;;;29.53;15.07;;;;;;;;;;10381054;27;20216;-66
2020/12/11 09:05:16;;;;;;;26.37;13.87;;;;;;;;;;10373866;28;20657;-66
2020/12/11 09:10:18;;;;;;;27.27;14.63;;;;;;;;;;10374072;27;20247;-66
2020/12/11 09:15:22;;;;;;;28.50;14.73;;;;;;;;;;10377382;28;20213;-67
2020/12/11 09:20:23;;;;;;;27.70;14.13;;;;;;;;;;10391390;27;21190;-65
2020/12/11 09:25:25;;;;;;;26.00;14.07;;;;;;;;;;10389401;27;20220;-66
2020/12/11 09:30:30;;;;;;;27.93;14.23;;;;;;;;;;10381277;28;20240;-66
2020/12/11 09:35:32;;;;;;;27.37;14.93;;;;;;;;;;10376419;28;20212;-65
2020/12/11 09:40:42;;;;;;;30.03;15.67;;;;;;;;;;10377216;28;20307;-65
2020/12/11 09:45:47;;;;;;;28.20;14.97;;;;;;;;;;10374995;28;20220;-66
2020/12/11 09:51:02;;;;;;;29.90;14.27;;;;;;;;;;10372956;28;20239;-66
2020/12/11 09:56:04;;;;;;;27.27;14.37;;;;;;;;;;10370241;28;20219;-66
2020/12/11 10:01:08;;;;;;;25.60;13.97;;;;;;;;;;10376802;28;20251;-66
2020/12/11 10:06:10;;;;;;;27.83;14.93;;;;;;;;;;10371168;28;20228;-65
2020/12/11 10:11:17;;;;;;;26.47;14.47;;;;;;;;;;10391303;27;20699;-65
2020/12/11 10:16:20;;;;;;;29.73;15.83;;;;;;;;;;10374999;28;20209;-66
2020/12/11 10:21:23;;;;;;;26.47;14.37;;;;;;;;;;10379666;27;20212;-66
2020/12/11 10:26:25;;;;;;;27.20;14.00;;;;;;;;;;10373581;27;20216;-66
2020/12/11 10:31:30;;;;;;;26.90;14.37;;;;;;;;;;10379642;27;20240;-66
2020/12/11 10:36:32;;;;;;;27.27;13.77;;;;;;;;;;10374737;28;20246;-66
2020/12/11 10:41:34;;;;;;;29.03;13.97;;;;;;;;;;10369000;28;20694;-66
2020/12/11 10:46:36;;;;;;;24.60;13.40;;;;;;;;;;10370659;28;20213;-65
2020/12/11 10:51:38;;;;;;;25.23;13.43;;;;;;;;;;10372959;28;20236;-66
2020/12/11 10:56:40;;;;;;;25.87;14.07;;;;;;;;;;10370947;28;20208;-66
2020/12/11 11:01:43;;;;;;;26.40;14.43;;;;;;;;;;10376041;28;20671;-65
2020/12/11 11:06:48;;;;;;;26.33;14.43;;;;;;;;;;10368332;28;20243;-65
2020/12/11 11:11:55;;;;;;;25.87;13.80;;;;;;;;;;10372468;28;20228;-65
2020/12/11 11:17:36;;;;;;;25.00;13.07;;;;;;;;;;10376257;28;20213;-66
2020/12/11 11:22:47;;;;;;;28.23;13.60;;;;;;;;;;10372745;28;20227;-67
2020/12/11 11:27:52;;;;;;;33.10;14.03;;;;;;;;;;10372146;28;20240;-66
2020/12/11 11:32:55;;;;;;;30.50;14.83;;;;;;;;;;10378987;28;20228;-66
2020/12/11 11:37:57;;;;;;;27.73;15.03;;;;;;;;;;10371729;28;20710;-65
2020/12/11 11:42:59;;;;;;;30.07;16.70;;;;;;;;;;10368391;28;20232;-65
2020/12/11 11:48:05;;;;;;;28.20;15.20;;;;;;;;;;10371044;28;20840;-65
2020/12/11 11:53:13;;;;;;;30.60;15.57;;;;;;;;;;10373204;28;20254;-65
2020/12/11 11:58:15;;;;;;;31.90;15.50;;;;;;;;;;10383221;28;20215;-66
2020/12/11 12:03:18;;;;;;;29.03;15.13;;;;;;;;;;10385185;27;20285;-66
2020/12/11 12:08:21;;;;;;;31.47;16.87;;;;;;;;;;10375898;27;20237;-66
2020/12/11 12:13:25;;;;;;;28.17;16.57;;;;;;;;;;10375711;28;20217;-66
2020/12/11 12:18:28;;;;;;;33.83;17.60;;;;;;;;;;10380682;27;20219;-66
